sensor_id;sensor_type;location;lat;lon;timestamp;temperature;humidity
33994;DHT22;20673;48.980;8.138;2022-12-10T00:01:29;2.00;99.90
33994;DHT22;20673;48.980;8.138;2022-12-10T00:03:55;2.00;99.90
33994;DHT22;20673;48.980;8.138;2022-12-10T00:06:22;2.00;99.90
33994;DHT22;20673;48.980;8.138;2022-12-10T00:08:50;2.00;99.90
33994;DHT22;20673;48.980;8.138;2022-12-10T00:11:17;2.00;99.90
33994;DHT22;20673;48.980;8.138;2022-12-10T00:13:45;2.00;99.90
33994;DHT22;20673;48.980;8.138;2022-12-10T00:16:12;2.00;99.90
33994;DHT22;20673;48.980;8.138;2022-12-10T00:18:40;2.00;99.90
33994;DHT22;20673;48.980;8.138;2022-12-10T00:21:07;2.00;99.90
33994;DHT22;20673;48.980;8.138;2022-12-10T00:23:35;1.90;99.90
33994;DHT22;20673;48.980;8.138;2022-12-10T00:26:08;1.90;99.90
33994;DHT22;20673;48.980;8.138;2022-12-10T00:28:32;1.90;99.90
33994;DHT22;20673;48.980;8.138;2022-12-10T00:31:05;1.90;99.90
33994;DHT22;20673;48.980;8.138;2022-12-10T00:33:33;1.90;99.90
33994;DHT22;20673;48.980;8.138;2022-12-10T00:36:03;1.90;99.90
33994;DHT22;20673;48.980;8.138;2022-12-10T00:38:31;1.90;99.90
33994;DHT22;20673;48.980;8.138;2022-12-10T00:40:57;1.90;99.90
33994;DHT22;20673;48.980;8.138;2022-12-10T00:43:23;1.90;99.90
33994;DHT22;20673;48.980;8.138;2022-12-10T00:45:49;1.90;99.90
33994;DHT22;20673;48.980;8.138;2022-12-10T00:48:15;1.90;99.90
33994;DHT22;20673;48.980;8.138;2022-12-10T00:50:41;1.90;99.90
33994;DHT22;20673;48.980;8.138;2022-12-10T00:53:07;1.90;99.90
33994;DHT22;20673;48.980;8.138;2022-12-10T00:55:33;1.90;99.90
33994;DHT22;20673;48.980;8.138;2022-12-10T00:57:59;1.90;99.90
33994;DHT22;20673;48.980;8.138;2022-12-10T01:00:25;1.90;99.90
33994;DHT22;20673;48.980;8.138;2022-12-10T01:02:51;1.80;99.90
33994;DHT22;20673;48.980;8.138;2022-12-10T01:05:18;1.90;99.90
33994;DHT22;20673;48.980;8.138;2022-12-10T01:07:44;1.80;99.90
33994;DHT22;20673;48.980;8.138;2022-12-10T01:10:10;1.90;99.90
33994;DHT22;20673;48.980;8.138;2022-12-10T01:12:36;1.90;99.90
33994;DHT22;20673;48.980;8.138;2022-12-10T01:15:02;1.90;99.90
33994;DHT22;20673;48.980;8.138;2022-12-10T01:17:28;1.90;99.90
33994;DHT22;20673;48.980;8.138;2022-12-10T01:19:54;1.90;99.90
33994;DHT22;20673;48.980;8.138;2022-12-10T01:22:20;1.80;99.90
33994;DHT22;20673;48.980;8.138;2022-12-10T01:24:46;1.80;99.90
33994;DHT22;20673;48.980;8.138;2022-12-10T01:27:12;1.80;99.90
33994;DHT22;20673;48.980;8.138;2022-12-10T01:29:38;1.80;99.90
33994;DHT22;20673;48.980;8.138;2022-12-10T01:32:04;1.80;99.90
33994;DHT22;20673;48.980;8.138;2022-12-10T01:34:30;1.80;99.90
33994;DHT22;20673;48.980;8.138;2022-12-10T01:36:56;1.80;99.90
33994;DHT22;20673;48.980;8.138;2022-12-10T01:39:22;1.80;99.90
33994;DHT22;20673;48.980;8.138;2022-12-10T01:41:50;1.80;99.90
33994;DHT22;20673;48.980;8.138;2022-12-10T01:46:55;1.80;99.90
33994;DHT22;20673;48.980;8.138;2022-12-10T01:49:36;1.80;99.90
33994;DHT22;20673;48.980;8.138;2022-12-10T01:52:05;1.80;99.90
33994;DHT22;20673;48.980;8.138;2022-12-10T01:54:34;1.80;99.90
33994;DHT22;20673;48.980;8.138;2022-12-10T01:57:03;1.80;99.90
33994;DHT22;20673;48.980;8.138;2022-12-10T01:59:31;1.80;99.90
33994;DHT22;20673;48.980;8.138;2022-12-10T02:02:04;1.80;99.90
33994;DHT22;20673;48.980;8.138;2022-12-10T02:04:55;1.80;99.90
33994;DHT22;20673;48.980;8.138;2022-12-10T02:10:24;1.70;99.90
33994;DHT22;20673;48.980;8.138;2022-12-10T02:15:25;1.70;99.90
33994;DHT22;20673;48.980;8.138;2022-12-10T02:18:03;1.70;99.90
33994;DHT22;20673;48.980;8.138;2022-12-10T02:20:34;1.70;99.90
33994;DHT22;20673;48.980;8.138;2022-12-10T02:25:41;1.70;99.90
33994;DHT22;20673;48.980;8.138;2022-12-10T02:28:23;1.70;99.90
33994;DHT22;20673;48.980;8.138;2022-12-10T02:30:52;1.70;99.90
33994;DHT22;20673;48.980;8.138;2022-12-10T02:33:19;1.70;99.90
33994;DHT22;20673;48.980;8.138;2022-12-10T02:35:49;1.80;99.90
33994;DHT22;20673;48.980;8.138;2022-12-10T02:38:32;1.70;99.90
33994;DHT22;20673;48.980;8.138;2022-12-10T02:41:02;1.70;99.90
33994;DHT22;20673;48.980;8.138;2022-12-10T02:43:33;1.70;99.90
33994;DHT22;20673;48.980;8.138;2022-12-10T02:46:01;1.60;99.90
33994;DHT22;20673;48.980;8.138;2022-12-10T02:48:29;1.60;99.90
33994;DHT22;20673;48.980;8.138;2022-12-10T02:50:57;1.60;99.90
33994;DHT22;20673;48.980;8.138;2022-12-10T02:53:23;1.60;99.90
33994;DHT22;20673;48.980;8.138;2022-12-10T02:58:38;1.60;99.90
33994;DHT22;20673;48.980;8.138;2022-12-10T03:04:00;1.60;99.90
33994;DHT22;20673;48.980;8.138;2022-12-10T03:06:50;1.60;99.90
33994;DHT22;20673;48.980;8.138;2022-12-10T03:09:19;1.60;99.90
33994;DHT22;20673;48.980;8.138;2022-12-10T03:11:50;1.60;99.90
33994;DHT22;20673;48.980;8.138;2022-12-10T03:14:21;1.60;99.90
33994;DHT22;20673;48.980;8.138;2022-12-10T03:16:58;1.60;99.90
33994;DHT22;20673;48.980;8.138;2022-12-10T03:19:33;1.60;99.90
33994;DHT22;20673;48.980;8.138;2022-12-10T03:22:05;1.60;99.90
33994;DHT22;20673;48.980;8.138;2022-12-10T03:24:34;1.60;99.90
33994;DHT22;20673;48.980;8.138;2022-12-10T03:27:01;1.60;99.90
33994;DHT22;20673;48.980;8.138;2022-12-10T03:29:33;1.60;99.90
33994;DHT22;20673;48.980;8.138;2022-12-10T03:32:02;1.60;99.90
33994;DHT22;20673;48.980;8.138;2022-12-10T03:34:29;1.60;99.90
33994;DHT22;20673;48.980;8.138;2022-12-10T03:36:55;1.50;99.90
33994;DHT22;20673;48.980;8.138;2022-12-10T03:39:22;1.50;99.90
33994;DHT22;20673;48.980;8.138;2022-12-10T03:41:49;1.50;99.90
33994;DHT22;20673;48.980;8.138;2022-12-10T03:44:26;1.50;99.90
33994;DHT22;20673;48.980;8.138;2022-12-10T03:46:48;1.50;99.90
33994;DHT22;20673;48.980;8.138;2022-12-10T03:49:15;1.50;99.90
33994;DHT22;20673;48.980;8.138;2022-12-10T03:51:41;1.50;99.90
33994;DHT22;20673;48.980;8.138;2022-12-10T03:54:07;1.50;99.90
33994;DHT22;20673;48.980;8.138;2022-12-10T03:56:33;1.50;99.90
33994;DHT22;20673;48.980;8.138;2022-12-10T03:58:58;1.50;99.90
33994;DHT22;20673;48.980;8.138;2022-12-10T04:01:24;1.60;99.90
33994;DHT22;20673;48.980;8.138;2022-12-10T04:03:50;1.50;99.90
33994;DHT22;20673;48.980;8.138;2022-12-10T04:06:17;1.50;99.90
33994;DHT22;20673;48.980;8.138;2022-12-10T04:08:44;1.50;99.90
33994;DHT22;20673;48.980;8.138;2022-12-10T04:11:11;1.40;99.90
33994;DHT22;20673;48.980;8.138;2022-12-10T04:13:38;1.40;99.90
33994;DHT22;20673;48.980;8.138;2022-12-10T04:16:24;1.40;99.90
33994;DHT22;20673;48.980;8.138;2022-12-10T04:19:12;1.40;99.90
33994;DHT22;20673;48.980;8.138;2022-12-10T04:21:33;1.40;99.90
33994;DHT22;20673;48.980;8.138;2022-12-10T04:24:19;1.40;99.90
33994;DHT22;20673;48.980;8.138;2022-12-10T04:27:11;1.40;99.90
33994;DHT22;20673;48.980;8.138;2022-12-10T04:29:36;1.50;99.90
33994;DHT22;20673;48.980;8.138;2022-12-10T04:32:02;1.50;99.90
33994;DHT22;20673;48.980;8.138;2022-12-10T04:34:29;1.50;99.90
33994;DHT22;20673;48.980;8.138;2022-12-10T04:36:56;1.50;99.90
33994;DHT22;20673;48.980;8.138;2022-12-10T04:39:23;1.50;99.90
33994;DHT22;20673;48.980;8.138;2022-12-10T04:41:49;1.40;99.90
33994;DHT22;20673;48.980;8.138;2022-12-10T04:44:17;1.50;99.90
33994;DHT22;20673;48.980;8.138;2022-12-10T04:46:43;1.50;99.90
33994;DHT22;20673;48.980;8.138;2022-12-10T04:49:10;1.50;99.90
33994;DHT22;20673;48.980;8.138;2022-12-10T04:51:36;1.40;99.90
33994;DHT22;20673;48.980;8.138;2022-12-10T04:54:03;1.40;99.90
33994;DHT22;20673;48.980;8.138;2022-12-10T04:56:29;1.40;99.90
33994;DHT22;20673;48.980;8.138;2022-12-10T04:58:57;1.40;99.90
33994;DHT22;20673;48.980;8.138;2022-12-10T05:01:23;1.30;99.90
33994;DHT22;20673;48.980;8.138;2022-12-10T05:03:50;1.40;99.90
33994;DHT22;20673;48.980;8.138;2022-12-10T05:06:17;1.30;99.90
33994;DHT22;20673;48.980;8.138;2022-12-10T05:08:44;1.30;99.90
33994;DHT22;20673;48.980;8.138;2022-12-10T05:11:16;1.30;99.90
33994;DHT22;20673;48.980;8.138;2022-12-10T05:13:40;1.40;99.90
33994;DHT22;20673;48.980;8.138;2022-12-10T05:16:07;1.30;99.90
33994;DHT22;20673;48.980;8.138;2022-12-10T05:18:35;1.30;99.90
33994;DHT22;20673;48.980;8.138;2022-12-10T05:21:02;1.30;99.90
33994;DHT22;20673;48.980;8.138;2022-12-10T05:23:30;1.30;99.90
33994;DHT22;20673;48.980;8.138;2022-12-10T05:28:33;1.30;99.90
33994;DHT22;20673;48.980;8.138;2022-12-10T05:31:04;1.30;99.90
33994;DHT22;20673;48.980;8.138;2022-12-10T05:33:31;1.30;99.90
33994;DHT22;20673;48.980;8.138;2022-12-10T05:35:58;1.30;99.90
33994;DHT22;20673;48.980;8.138;2022-12-10T05:38:26;1.30;99.90
33994;DHT22;20673;48.980;8.138;2022-12-10T05:40:54;1.20;99.90
33994;DHT22;20673;48.980;8.138;2022-12-10T05:43:20;1.20;99.90
33994;DHT22;20673;48.980;8.138;2022-12-10T05:45:47;1.20;99.90
33994;DHT22;20673;48.980;8.138;2022-12-10T05:48:13;1.20;99.90
33994;DHT22;20673;48.980;8.138;2022-12-10T05:50:40;1.20;99.90
33994;DHT22;20673;48.980;8.138;2022-12-10T05:53:07;1.20;99.90
33994;DHT22;20673;48.980;8.138;2022-12-10T05:55:33;1.20;99.90
33994;DHT22;20673;48.980;8.138;2022-12-10T05:57:59;1.20;99.90
33994;DHT22;20673;48.980;8.138;2022-12-10T06:00:26;1.20;99.90
33994;DHT22;20673;48.980;8.138;2022-12-10T06:02:53;1.10;99.90
33994;DHT22;20673;48.980;8.138;2022-12-10T06:05:19;1.20;99.90
33994;DHT22;20673;48.980;8.138;2022-12-10T06:07:45;1.10;99.90
33994;DHT22;20673;48.980;8.138;2022-12-10T06:10:11;1.10;99.90
33994;DHT22;20673;48.980;8.138;2022-12-10T06:12:38;1.10;99.90
33994;DHT22;20673;48.980;8.138;2022-12-10T06:15:04;1.10;99.90
33994;DHT22;20673;48.980;8.138;2022-12-10T06:17:31;1.10;99.90
33994;DHT22;20673;48.980;8.138;2022-12-10T06:19:57;1.10;99.90
33994;DHT22;20673;48.980;8.138;2022-12-10T06:22:23;1.10;99.90
33994;DHT22;20673;48.980;8.138;2022-12-10T06:24:49;1.10;99.90
33994;DHT22;20673;48.980;8.138;2022-12-10T06:27:15;1.20;99.90
33994;DHT22;20673;48.980;8.138;2022-12-10T06:29:41;1.10;99.90
33994;DHT22;20673;48.980;8.138;2022-12-10T06:32:07;1.10;99.90
33994;DHT22;20673;48.980;8.138;2022-12-10T06:34:33;1.10;99.90
33994;DHT22;20673;48.980;8.138;2022-12-10T06:36:59;1.20;99.90
33994;DHT22;20673;48.980;8.138;2022-12-10T06:39:25;1.00;99.90
33994;DHT22;20673;48.980;8.138;2022-12-10T06:41:51;1.10;99.90
33994;DHT22;20673;48.980;8.138;2022-12-10T06:44:17;1.10;99.90
33994;DHT22;20673;48.980;8.138;2022-12-10T06:46:43;1.10;99.90
33994;DHT22;20673;48.980;8.138;2022-12-10T06:49:09;1.10;99.90
33994;DHT22;20673;48.980;8.138;2022-12-10T06:51:35;1.00;99.90
33994;DHT22;20673;48.980;8.138;2022-12-10T06:54:04;1.10;99.90
33994;DHT22;20673;48.980;8.138;2022-12-10T06:56:30;1.10;99.90
33994;DHT22;20673;48.980;8.138;2022-12-10T06:58:56;1.10;99.90
33994;DHT22;20673;48.980;8.138;2022-12-10T07:01:23;1.00;99.90
33994;DHT22;20673;48.980;8.138;2022-12-10T07:03:54;1.00;99.90
33994;DHT22;20673;48.980;8.138;2022-12-10T07:06:21;1.00;99.90
33994;DHT22;20673;48.980;8.138;2022-12-10T07:08:49;1.00;99.90
33994;DHT22;20673;48.980;8.138;2022-12-10T07:11:16;1.00;99.90
33994;DHT22;20673;48.980;8.138;2022-12-10T07:13:44;1.00;99.90
33994;DHT22;20673;48.980;8.138;2022-12-10T07:16:16;1.00;99.90
33994;DHT22;20673;48.980;8.138;2022-12-10T07:18:45;1.00;99.90
33994;DHT22;20673;48.980;8.138;2022-12-10T07:21:18;1.00;99.90
33994;DHT22;20673;48.980;8.138;2022-12-10T07:23:50;1.00;99.90
33994;DHT22;20673;48.980;8.138;2022-12-10T07:26:19;1.00;99.90
33994;DHT22;20673;48.980;8.138;2022-12-10T07:28:45;1.00;99.90
33994;DHT22;20673;48.980;8.138;2022-12-10T07:31:11;1.00;99.90
33994;DHT22;20673;48.980;8.138;2022-12-10T07:33:37;1.00;99.90
33994;DHT22;20673;48.980;8.138;2022-12-10T07:36:09;1.00;99.90
33994;DHT22;20673;48.980;8.138;2022-12-10T07:38:33;1.00;99.90
33994;DHT22;20673;48.980;8.138;2022-12-10T07:41:06;1.00;99.90
33994;DHT22;20673;48.980;8.138;2022-12-10T07:43:34;1.00;99.90
33994;DHT22;20673;48.980;8.138;2022-12-10T07:46:02;0.90;99.90
33994;DHT22;20673;48.980;8.138;2022-12-10T07:48:31;1.00;99.90
33994;DHT22;20673;48.980;8.138;2022-12-10T07:50:57;0.90;99.90
33994;DHT22;20673;48.980;8.138;2022-12-10T07:53:23;1.00;99.90
33994;DHT22;20673;48.980;8.138;2022-12-10T07:55:49;1.00;99.90
33994;DHT22;20673;48.980;8.138;2022-12-10T07:58:16;1.00;99.90
33994;DHT22;20673;48.980;8.138;2022-12-10T08:00:42;1.00;99.90
33994;DHT22;20673;48.980;8.138;2022-12-10T08:03:08;1.00;99.90
33994;DHT22;20673;48.980;8.138;2022-12-10T08:05:34;1.00;99.90
33994;DHT22;20673;48.980;8.138;2022-12-10T08:08:00;1.10;99.90
33994;DHT22;20673;48.980;8.138;2022-12-10T08:10:26;1.10;99.90
33994;DHT22;20673;48.980;8.138;2022-12-10T08:12:52;1.10;99.90
33994;DHT22;20673;48.980;8.138;2022-12-10T08:15:18;1.10;99.90
33994;DHT22;20673;48.980;8.138;2022-12-10T08:17:44;1.10;99.90
33994;DHT22;20673;48.980;8.138;2022-12-10T08:20:10;1.10;99.90
33994;DHT22;20673;48.980;8.138;2022-12-10T08:22:36;1.20;99.90
33994;DHT22;20673;48.980;8.138;2022-12-10T08:25:02;1.20;99.90
33994;DHT22;20673;48.980;8.138;2022-12-10T08:27:28;1.20;99.90
33994;DHT22;20673;48.980;8.138;2022-12-10T08:29:54;1.20;99.90
33994;DHT22;20673;48.980;8.138;2022-12-10T08:32:20;1.20;99.90
33994;DHT22;20673;48.980;8.138;2022-12-10T08:34:46;1.20;99.90
33994;DHT22;20673;48.980;8.138;2022-12-10T08:37:12;1.20;99.90
33994;DHT22;20673;48.980;8.138;2022-12-10T08:39:38;1.20;99.90
33994;DHT22;20673;48.980;8.138;2022-12-10T08:42:05;1.20;99.90
33994;DHT22;20673;48.980;8.138;2022-12-10T08:44:31;1.20;99.90
33994;DHT22;20673;48.980;8.138;2022-12-10T08:46:57;1.20;99.90
33994;DHT22;20673;48.980;8.138;2022-12-10T08:49:24;1.20;99.90
33994;DHT22;20673;48.980;8.138;2022-12-10T08:51:50;1.30;99.90
33994;DHT22;20673;48.980;8.138;2022-12-10T08:54:16;1.30;99.90
33994;DHT22;20673;48.980;8.138;2022-12-10T08:56:42;1.30;99.90
33994;DHT22;20673;48.980;8.138;2022-12-10T08:59:08;1.30;99.90
33994;DHT22;20673;48.980;8.138;2022-12-10T09:01:34;1.30;99.90
33994;DHT22;20673;48.980;8.138;2022-12-10T09:04:00;1.40;99.90
33994;DHT22;20673;48.980;8.138;2022-12-10T09:06:27;1.40;99.90
33994;DHT22;20673;48.980;8.138;2022-12-10T09:08:53;1.40;99.90
33994;DHT22;20673;48.980;8.138;2022-12-10T09:11:22;1.50;99.90
33994;DHT22;20673;48.980;8.138;2022-12-10T09:13:52;1.50;99.90
33994;DHT22;20673;48.980;8.138;2022-12-10T09:16:19;1.60;99.90
33994;DHT22;20673;48.980;8.138;2022-12-10T09:18:45;1.50;99.90
33994;DHT22;20673;48.980;8.138;2022-12-10T09:21:12;1.50;99.90
33994;DHT22;20673;48.980;8.138;2022-12-10T09:23:41;1.50;99.90
33994;DHT22;20673;48.980;8.138;2022-12-10T09:26:07;1.50;99.90
33994;DHT22;20673;48.980;8.138;2022-12-10T09:28:35;1.50;99.90
33994;DHT22;20673;48.980;8.138;2022-12-10T09:31:02;1.60;99.90
33994;DHT22;20673;48.980;8.138;2022-12-10T09:33:30;1.60;99.90
33994;DHT22;20673;48.980;8.138;2022-12-10T09:35:57;1.60;99.90
33994;DHT22;20673;48.980;8.138;2022-12-10T09:38:23;1.50;99.90
33994;DHT22;20673;48.980;8.138;2022-12-10T09:52:16;1.80;99.90
33994;DHT22;20673;48.980;8.138;2022-12-10T09:57:25;2.00;99.90
33994;DHT22;20673;48.980;8.138;2022-12-10T09:59:55;2.10;99.90
33994;DHT22;20673;48.980;8.138;2022-12-10T10:02:25;2.20;99.90
33994;DHT22;20673;48.980;8.138;2022-12-10T10:04:54;2.30;99.90
33994;DHT22;20673;48.980;8.138;2022-12-10T10:07:24;2.40;99.90
33994;DHT22;20673;48.980;8.138;2022-12-10T10:09:54;2.50;99.90
33994;DHT22;20673;48.980;8.138;2022-12-10T10:12:22;2.60;99.90
33994;DHT22;20673;48.980;8.138;2022-12-10T10:14:48;2.60;99.90
33994;DHT22;20673;48.980;8.138;2022-12-10T10:17:22;2.60;99.90
33994;DHT22;20673;48.980;8.138;2022-12-10T10:19:58;2.50;99.90
33994;DHT22;20673;48.980;8.138;2022-12-10T10:22:25;2.60;99.90
33994;DHT22;20673;48.980;8.138;2022-12-10T10:24:52;2.60;99.90
33994;DHT22;20673;48.980;8.138;2022-12-10T10:27:20;2.60;99.90
33994;DHT22;20673;48.980;8.138;2022-12-10T10:29:49;2.60;99.90
33994;DHT22;20673;48.980;8.138;2022-12-10T10:32:18;2.60;99.90
33994;DHT22;20673;48.980;8.138;2022-12-10T10:34:51;2.60;99.90
33994;DHT22;20673;48.980;8.138;2022-12-10T10:37:20;2.60;99.90
33994;DHT22;20673;48.980;8.138;2022-12-10T10:39:57;2.60;99.90
33994;DHT22;20673;48.980;8.138;2022-12-10T10:42:28;2.50;99.90
33994;DHT22;20673;48.980;8.138;2022-12-10T10:45:02;2.40;99.90
33994;DHT22;20673;48.980;8.138;2022-12-10T10:47:32;2.30;99.90
33994;DHT22;20673;48.980;8.138;2022-12-10T10:49:59;2.30;99.90
33994;DHT22;20673;48.980;8.138;2022-12-10T10:52:29;2.30;99.90
33994;DHT22;20673;48.980;8.138;2022-12-10T10:54:57;2.30;99.90
33994;DHT22;20673;48.980;8.138;2022-12-10T10:57:37;2.30;99.90
33994;DHT22;20673;48.980;8.138;2022-12-10T11:00:07;2.30;99.90
33994;DHT22;20673;48.980;8.138;2022-12-10T11:02:40;2.40;99.90
33994;DHT22;20673;48.980;8.138;2022-12-10T11:05:15;2.40;99.90
33994;DHT22;20673;48.980;8.138;2022-12-10T11:07:44;2.30;99.90
33994;DHT22;20673;48.980;8.138;2022-12-10T11:10:17;2.40;99.90
33994;DHT22;20673;48.980;8.138;2022-12-10T11:15:35;2.50;99.90
33994;DHT22;20673;48.980;8.138;2022-12-10T11:20:58;2.60;99.90
33994;DHT22;20673;48.980;8.138;2022-12-10T11:23:30;2.60;99.90
33994;DHT22;20673;48.980;8.138;2022-12-10T11:26:03;2.70;99.90
33994;DHT22;20673;48.980;8.138;2022-12-10T11:40:02;3.20;99.90
33994;DHT22;20673;48.980;8.138;2022-12-10T11:42:52;3.20;99.90
33994;DHT22;20673;48.980;8.138;2022-12-10T11:51:00;3.50;99.90
33994;DHT22;20673;48.980;8.138;2022-12-10T11:56:27;3.90;99.90
33994;DHT22;20673;48.980;8.138;2022-12-10T12:07:21;4.80;99.90
33994;DHT22;20673;48.980;8.138;2022-12-10T12:10:19;5.10;99.90
33994;DHT22;20673;48.980;8.138;2022-12-10T12:20:55;4.30;99.90
33994;DHT22;20673;48.980;8.138;2022-12-10T12:26:26;4.30;99.90
33994;DHT22;20673;48.980;8.138;2022-12-10T12:29:17;4.20;99.90
33994;DHT22;20673;48.980;8.138;2022-12-10T12:32:01;4.10;99.90
33994;DHT22;20673;48.980;8.138;2022-12-10T12:34:46;4.00;99.90
33994;DHT22;20673;48.980;8.138;2022-12-10T12:37:38;3.90;99.90
33994;DHT22;20673;48.980;8.138;2022-12-10T12:40:11;3.90;99.90
33994;DHT22;20673;48.980;8.138;2022-12-10T12:42:41;4.10;99.90
33994;DHT22;20673;48.980;8.138;2022-12-10T12:45:48;4.10;99.90
33994;DHT22;20673;48.980;8.138;2022-12-10T12:48:14;4.10;99.90
33994;DHT22;20673;48.980;8.138;2022-12-10T12:51:02;4.00;99.90
33994;DHT22;20673;48.980;8.138;2022-12-10T12:53:30;4.00;99.90
33994;DHT22;20673;48.980;8.138;2022-12-10T13:01:47;3.90;99.90
33994;DHT22;20673;48.980;8.138;2022-12-10T13:04:10;3.90;99.90
33994;DHT22;20673;48.980;8.138;2022-12-10T13:06:37;3.70;99.90
33994;DHT22;20673;48.980;8.138;2022-12-10T13:14:15;3.60;99.90
33994;DHT22;20673;48.980;8.138;2022-12-10T13:16:48;3.60;99.90
33994;DHT22;20673;48.980;8.138;2022-12-10T13:22:03;3.60;99.90
33994;DHT22;20673;48.980;8.138;2022-12-10T13:27:32;3.40;99.90
33994;DHT22;20673;48.980;8.138;2022-12-10T13:46:22;3.10;99.90
33994;DHT22;20673;48.980;8.138;2022-12-10T13:48:51;3.10;99.90
33994;DHT22;20673;48.980;8.138;2022-12-10T13:54:19;3.00;99.90
33994;DHT22;20673;48.980;8.138;2022-12-10T13:56:58;3.00;99.90
33994;DHT22;20673;48.980;8.138;2022-12-10T13:59:28;3.00;99.90
33994;DHT22;20673;48.980;8.138;2022-12-10T14:07:47;2.90;99.90
33994;DHT22;20673;48.980;8.138;2022-12-10T14:10:17;2.80;99.90
33994;DHT22;20673;48.980;8.138;2022-12-10T14:12:45;2.80;99.90
33994;DHT22;20673;48.980;8.138;2022-12-10T14:15:19;2.80;99.90
33994;DHT22;20673;48.980;8.138;2022-12-10T14:17:51;2.70;99.90
33994;DHT22;20673;48.980;8.138;2022-12-10T14:20:21;2.80;99.90
33994;DHT22;20673;48.980;8.138;2022-12-10T14:22:50;2.70;99.90
33994;DHT22;20673;48.980;8.138;2022-12-10T14:25:23;2.70;99.90
33994;DHT22;20673;48.980;8.138;2022-12-10T14:27:48;2.60;99.90
33994;DHT22;20673;48.980;8.138;2022-12-10T14:30:17;2.60;99.90
33994;DHT22;20673;48.980;8.138;2022-12-10T14:32:45;2.50;99.90
33994;DHT22;20673;48.980;8.138;2022-12-10T14:35:14;2.50;99.90
33994;DHT22;20673;48.980;8.138;2022-12-10T14:37:42;2.50;99.90
33994;DHT22;20673;48.980;8.138;2022-12-10T14:42:49;2.50;99.90
33994;DHT22;20673;48.980;8.138;2022-12-10T14:45:17;2.50;99.90
33994;DHT22;20673;48.980;8.138;2022-12-10T14:47:43;2.40;99.90
33994;DHT22;20673;48.980;8.138;2022-12-10T14:50:13;2.40;99.90
33994;DHT22;20673;48.980;8.138;2022-12-10T14:52:49;2.40;99.90
33994;DHT22;20673;48.980;8.138;2022-12-10T14:55:13;2.40;99.90
33994;DHT22;20673;48.980;8.138;2022-12-10T14:57:47;2.30;99.90
33994;DHT22;20673;48.980;8.138;2022-12-10T15:02:43;2.30;99.90
33994;DHT22;20673;48.980;8.138;2022-12-10T15:05:21;2.20;99.90
33994;DHT22;20673;48.980;8.138;2022-12-10T15:07:57;2.30;99.90
33994;DHT22;20673;48.980;8.138;2022-12-10T15:10:35;2.20;99.90
33994;DHT22;20673;48.980;8.138;2022-12-10T15:13:03;2.20;99.90
33994;DHT22;20673;48.980;8.138;2022-12-10T15:15:33;2.20;99.90
33994;DHT22;20673;48.980;8.138;2022-12-10T15:28:35;1.90;99.90
33994;DHT22;20673;48.980;8.138;2022-12-10T15:31:13;1.90;99.90
33994;DHT22;20673;48.980;8.138;2022-12-10T15:33:54;1.80;99.90
33994;DHT22;20673;48.980;8.138;2022-12-10T15:36:37;1.80;99.90
33994;DHT22;20673;48.980;8.138;2022-12-10T15:41:44;1.80;99.90
33994;DHT22;20673;48.980;8.138;2022-12-10T15:47:00;1.90;99.90
33994;DHT22;20673;48.980;8.138;2022-12-10T15:49:29;1.90;99.90
33994;DHT22;20673;48.980;8.138;2022-12-10T15:51:56;1.80;99.90
33994;DHT22;20673;48.980;8.138;2022-12-10T15:56:58;1.90;99.90
33994;DHT22;20673;48.980;8.138;2022-12-10T15:59:25;1.80;99.90
33994;DHT22;20673;48.980;8.138;2022-12-10T16:01:51;1.80;99.90
33994;DHT22;20673;48.980;8.138;2022-12-10T16:04:17;1.90;99.90
33994;DHT22;20673;48.980;8.138;2022-12-10T16:06:43;1.80;99.90
33994;DHT22;20673;48.980;8.138;2022-12-10T16:09:09;1.80;99.90
33994;DHT22;20673;48.980;8.138;2022-12-10T16:11:35;1.80;99.90
33994;DHT22;20673;48.980;8.138;2022-12-10T16:14:01;1.80;99.90
33994;DHT22;20673;48.980;8.138;2022-12-10T16:16:29;1.80;99.90
33994;DHT22;20673;48.980;8.138;2022-12-10T16:18:55;1.80;99.90
33994;DHT22;20673;48.980;8.138;2022-12-10T16:21:21;1.80;99.90
33994;DHT22;20673;48.980;8.138;2022-12-10T16:23:47;1.90;99.90
33994;DHT22;20673;48.980;8.138;2022-12-10T16:26:15;1.80;99.90
33994;DHT22;20673;48.980;8.138;2022-12-10T16:28:44;1.80;99.90
33994;DHT22;20673;48.980;8.138;2022-12-10T16:31:12;1.80;99.90
33994;DHT22;20673;48.980;8.138;2022-12-10T16:33:40;1.80;99.90
33994;DHT22;20673;48.980;8.138;2022-12-10T16:36:06;1.80;99.90
33994;DHT22;20673;48.980;8.138;2022-12-10T16:38:33;1.70;99.90
33994;DHT22;20673;48.980;8.138;2022-12-10T16:40:59;1.60;99.90
33994;DHT22;20673;48.980;8.138;2022-12-10T16:43:27;1.60;99.90
33994;DHT22;20673;48.980;8.138;2022-12-10T16:45:54;1.60;99.90
33994;DHT22;20673;48.980;8.138;2022-12-10T16:48:20;1.60;99.90
33994;DHT22;20673;48.980;8.138;2022-12-10T16:50:48;1.60;99.90
33994;DHT22;20673;48.980;8.138;2022-12-10T16:53:26;1.50;99.90
33994;DHT22;20673;48.980;8.138;2022-12-10T16:55:55;1.70;99.90
33994;DHT22;20673;48.980;8.138;2022-12-10T16:58:22;1.70;99.90
33994;DHT22;20673;48.980;8.138;2022-12-10T17:00:50;1.50;99.90
33994;DHT22;20673;48.980;8.138;2022-12-10T17:03:19;1.50;99.90
33994;DHT22;20673;48.980;8.138;2022-12-10T17:05:53;1.50;99.90
33994;DHT22;20673;48.980;8.138;2022-12-10T17:08:17;1.40;99.90
33994;DHT22;20673;48.980;8.138;2022-12-10T17:10:44;1.40;99.90
33994;DHT22;20673;48.980;8.138;2022-12-10T17:13:28;1.40;99.90
33994;DHT22;20673;48.980;8.138;2022-12-10T17:15:55;1.30;99.90
33994;DHT22;20673;48.980;8.138;2022-12-10T17:18:22;1.30;99.90
33994;DHT22;20673;48.980;8.138;2022-12-10T17:20:48;1.30;99.90
33994;DHT22;20673;48.980;8.138;2022-12-10T17:23:15;1.30;99.90
33994;DHT22;20673;48.980;8.138;2022-12-10T17:25:41;1.20;99.90
33994;DHT22;20673;48.980;8.138;2022-12-10T17:28:16;1.20;99.90
33994;DHT22;20673;48.980;8.138;2022-12-10T17:30:41;1.20;99.90
33994;DHT22;20673;48.980;8.138;2022-12-10T17:33:11;1.20;99.90
33994;DHT22;20673;48.980;8.138;2022-12-10T17:35:41;1.10;99.90
33994;DHT22;20673;48.980;8.138;2022-12-10T17:38:19;1.10;99.90
33994;DHT22;20673;48.980;8.138;2022-12-10T17:40:43;1.10;99.90
33994;DHT22;20673;48.980;8.138;2022-12-10T17:43:09;1.10;99.90
33994;DHT22;20673;48.980;8.138;2022-12-10T17:45:36;1.10;99.90
33994;DHT22;20673;48.980;8.138;2022-12-10T17:48:03;1.00;99.90
33994;DHT22;20673;48.980;8.138;2022-12-10T17:50:32;1.00;99.90
33994;DHT22;20673;48.980;8.138;2022-12-10T17:53:00;1.00;99.90
33994;DHT22;20673;48.980;8.138;2022-12-10T17:55:27;1.00;99.90
33994;DHT22;20673;48.980;8.138;2022-12-10T17:57:54;1.00;99.90
33994;DHT22;20673;48.980;8.138;2022-12-10T18:00:22;1.00;99.90
33994;DHT22;20673;48.980;8.138;2022-12-10T18:02:50;1.00;99.90
33994;DHT22;20673;48.980;8.138;2022-12-10T18:05:16;0.90;99.90
33994;DHT22;20673;48.980;8.138;2022-12-10T18:07:42;0.80;99.90
33994;DHT22;20673;48.980;8.138;2022-12-10T18:10:16;0.80;99.90
33994;DHT22;20673;48.980;8.138;2022-12-10T18:12:44;0.70;99.90
33994;DHT22;20673;48.980;8.138;2022-12-10T18:15:11;0.60;99.90
33994;DHT22;20673;48.980;8.138;2022-12-10T18:17:37;0.40;99.90
33994;DHT22;20673;48.980;8.138;2022-12-10T18:20:04;0.30;99.90